Terminal Aerodrome Forecast
Issued by NWS Louisville, KY

Home | Current Version | Previous Version | Text Only | Print | Product List | Glossary On
Versions: 1 2 3 4 5 6 7 8 9 10 11 12 13 14 15 16 17 18 19
222
FTUS43 KLMK 082141 AAA
TAFLEX
TAF AMD
KLEX 082141Z 0822/0918 30010G20KT 4SM -SHSN BR SCT025 BKN035
      TEMPO 0822/0823 1SM -SHSN BR BKN015
     FM090600 27010KT 6SM BR VCSH OVC015=

USA.gov is the U.S. government's official web portal to all federal, state and local government web resources and services.